Bookmark and Share
Track history (hours):
 

Daio

Last reported at 2014-Apr-18 17:33 UTC. Time now 2014-Apr-18 18:19 UTC.
Position N 35°36' E 140°06'.

Length 36 m; draft 3.4 m.

Type: Tug. MMSI: 431003092.

NotesDate/timePositionNaut miles runAvg speedWind from/ knotsBaromVisibWave heightAir tempDewpointWater temp
2014-Apr-18 17:33N 35°36' E 140°06'0 0.0
2014-Apr-18 16:33N 35°36' E 140°06'0 0.0
2014-Apr-18 15:34N 35°36' E 140°06'0 0.0
2014-Apr-18 14:33N 35°36' E 140°06'0 0.0
2014-Apr-18 13:33N 35°36' E 140°06'0 0.0
2014-Apr-18 07:27N 35°36' E 140°06'1 0.8
2014-Apr-18 06:33N 35°36' E 140°06'1 1.3
2014-Apr-18 05:33N 35°35' E 140°04'0 0.0
2014-Apr-18 04:33N 35°35' E 140°04'0 0.0
2014-Apr-18 03:34N 35°35' E 140°04'0 0.0
2014-Apr-18 02:34N 35°35' E 140°04'0 0.0
2014-Apr-18 01:33N 35°35' E 140°04'0 0.0
2014-Apr-18 00:33N 35°35' E 140°04'4 4.1
2014-Apr-17 23:33N 35°31' E 140°02'0 0.4
2014-Apr-17 22:34N 35°32' E 140°02'1 1.1
2014-Apr-17 21:34N 35°33' E 140°03'4 4.3
2014-Apr-17 20:34N 35°36' E 140°05'1 0.1
2014-Apr-17 06:33N 35°36' E 140°06'0 0.0
2014-Apr-17 05:33N 35°36' E 140°06'0 0.0
2014-Apr-17 04:33N 35°36' E 140°06'0 0.0
2014-Apr-17 03:33N 35°36' E 140°06'0 0.0
2014-Apr-17 02:33N 35°36' E 140°06'6 6.1
2014-Apr-17 01:33N 35°31' E 140°02'1 0.6
2014-Apr-17 00:33N 35°31' E 140°01'1 0.8
2014-Apr-16 23:33N 35°31' E 140°02'6 5.6
2014-Apr-16 22:34N 35°36' E 140°06'2 1.9
2014-Apr-16 21:33N 35°35' E 140°03'0 0.0
2014-Apr-16 20:33N 35°35' E 140°03'2 0.1
2014-Apr-16 07:33N 35°36' E 140°05'0 0.5
2014-Apr-16 06:33N 35°36' E 140°05'2 1.6
2014-Apr-16 05:33N 35°35' E 140°06'2 2.3
2014-Apr-16 04:33N 35°36' E 140°04'0 0.2
2014-Apr-16 03:33N 35°36' E 140°04'2 2.3
2014-Apr-16 02:33N 35°35' E 140°06'1 0.7
2014-Apr-16 01:33N 35°36' E 140°07'0 0.0
2014-Apr-16 00:33N 35°36' E 140°07'0 0.0
2014-Apr-15 23:33N 35°36' E 140°07'2 1.7
2014-Apr-15 22:33N 35°36' E 140°05'2 1.8
2014-Apr-15 21:33N 35°35' E 140°03'3 2.8
2014-Apr-15 20:33N 35°35' E 140°06'1 0.8
2014-Apr-15 19:33N 35°36' E 140°06'0 0.0
2014-Apr-15 18:33N 35°36' E 140°06'0 0.0
2014-Apr-15 17:33N 35°36' E 140°06'0 0.0
2014-Apr-15 16:33N 35°36' E 140°06'0 0.0
2014-Apr-15 15:33N 35°36' E 140°06'0 0.0
2014-Apr-15 14:33N 35°36' E 140°06'0 0.0
2014-Apr-15 12:34N 35°36' E 140°06'0 0.0
2014-Apr-15 11:34N 35°36' E 140°06'0 0.0
2014-Apr-15 06:30N 35°36' E 140°06'1 1.3
2014-Apr-15 05:34N 35°35' E 140°05'9 4.6
2014-Apr-15 03:34N 35°28' E 139°58'0 0.1
2014-Apr-15 02:34N 35°28' E 139°58'2 2.0
2014-Apr-15 01:34N 35°30' E 139°56'2 2.4
2014-Apr-15 00:34N 35°29' E 139°59'0 0.0
2014-Apr-14 23:34N 35°29' E 139°59'4 4.4
2014-Apr-14 22:34N 35°33' E 140°03'2 2.4
2014-Apr-14 21:33N 35°33' E 140°05'3 2.8
2014-Apr-14 20:34N 35°36' E 140°06'0 0.0
2014-Apr-14 06:30N 35°36' E 140°06'0 0.0
2014-Apr-14 05:33N 35°36' E 140°06'0 0.0
2014-Apr-13 05:13N 35°36' E 140°06'0 0.7
2014-Apr-13 04:34N 35°36' E 140°07'0 0.0
2014-Apr-13 03:34N 35°36' E 140°07'4 4.4
2014-Apr-13 02:34N 35°33' E 140°02'3 2.8
2014-Apr-13 01:33N 35°31' E 139°60'1 0.5
2014-Apr-13 00:33N 35°31' E 139°59'1 1.2
2014-Apr-12 23:33N 35°32' E 140°00'6 6.5
2014-Apr-12 22:33N 35°36' E 140°06'0 0.0
2014-Apr-12 04:28N 35°36' E 140°06'1011.2
2014-Apr-12 03:33N 35°29' E 139°58'0 0.2
2014-Apr-12 02:33N 35°28' E 139°58'0 0.5
2014-Apr-12 01:33N 35°29' E 139°58'2 1.6
2014-Apr-12 00:33N 35°30' E 139°56'2 1.8
2014-Apr-11 23:33N 35°29' E 139°58'4 4.1
2014-Apr-11 22:33N 35°32' E 140°01'6 0.4
2014-Apr-11 06:24N 35°36' E 140°06'0 0.0
2014-Apr-11 05:33N 35°36' E 140°06'0 0.0
2014-Apr-11 04:33N 35°36' E 140°06'1 1.0
2014-Apr-11 03:33N 35°35' E 140°06'1 1.0
2014-Apr-11 02:33N 35°36' E 140°06'0 0.0
2014-Apr-11 01:33N 35°36' E 140°06'0 0.0
2014-Apr-11 00:33N 35°36' E 140°06'0 0.1
2014-Apr-10 23:33N 35°36' E 140°06'1 0.9
2014-Apr-10 22:33N 35°36' E 140°05'0 0.4
2014-Apr-10 21:33N 35°36' E 140°06'1 0.0
2014-Apr-10 07:06N 35°36' E 140°06'0 0.5
2014-Apr-10 06:34N 35°36' E 140°06'0 0.3
2014-Apr-10 05:33N 35°36' E 140°06'0 0.0
2014-Apr-10 04:33N 35°36' E 140°06'0 0.0
2014-Apr-10 03:33N 35°36' E 140°06'0 0.0
2014-Apr-10 02:33N 35°36' E 140°06'0 0.0
2014-Apr-10 01:33N 35°36' E 140°06'7 7.2
2014-Apr-10 00:33N 35°31' E 140°00'2 2.5
2014-Apr-09 23:33N 35°29' E 139°58'9 9.1
2014-Apr-09 22:33N 35°36' E 140°06'0 0.4
2014-Apr-09 21:33N 35°36' E 140°06'1 0.8
2014-Apr-09 20:33N 35°36' E 140°06'0 0.0
2014-Apr-09 19:33N 35°36' E 140°06'0 0.0
2014-Apr-09 18:33N 35°36' E 140°06'0 0.0
2014-Apr-09 17:33N 35°36' E 140°06'0 0.0
2014-Apr-09 16:33N 35°36' E 140°06'0 0.0
2014-Apr-09 15:33N 35°36' E 140°06'0 0.0
2014-Apr-09 14:33N 35°36' E 140°06'0 0.0
2014-Apr-09 13:33N 35°36' E 140°06'0 0.0
2014-Apr-09 12:33N 35°36' E 140°06'0 0.0
2014-Apr-09 07:27N 35°36' E 140°06'0 0.0
2014-Apr-09 06:33N 35°36' E 140°06'0 0.0
2014-Apr-09 05:33N 35°36' E 140°06'2 1.8
2014-Apr-09 04:33N 35°35' E 140°04'8 8.1
2014-Apr-09 03:33N 35°31' E 139°56'0 0.1
2014-Apr-09 02:33N 35°31' E 139°56'3 3.1
2014-Apr-09 01:33N 35°29' E 139°53'1 1.1
2014-Apr-09 00:33N 35°28' E 139°54'5 5.0
2014-Apr-08 23:33N 35°28' E 139°60'10 9.5
2014-Apr-08 22:33N 35°36' E 140°06'0 0.1
2014-Apr-08 21:33N 35°36' E 140°06'0 0.0
2014-Apr-08 20:33N 35°36' E 140°06'0 0.0
2014-Apr-08 19:33N 35°36' E 140°06'0 0.0
2014-Apr-08 18:33N 35°36' E 140°06'0 0.0
2014-Apr-08 17:33N 35°36' E 140°06'  

Dump ship's entire track history

sailing weather and tide predictions

Daio — JG5587 — position and weather